This is the latest recevied weather packets stored in our database for station/object HS5NMF. If no packets are shown the sender has not sent any weather packets the latest 1 day(s).
| Time | Temp. | Humidity | Pressure | Rain* | Wind** | Luminosity | Snow |
|---|---|---|---|---|---|---|---|
| 1836274682 | 38.89° C | 43% | 976 hPa | - | 0 m/s | 0 W/m² | - |
| 1836274681 | 38.89° C | 43% | 976 hPa | - | 0 m/s | 0 W/m² | - |
| 1836274576 | 38.89° C | 42% | - | - | 0 m/s | - | - |
| 1836274576 | 38.89° C | - | - | - | 0 m/s | - | - |
| 1836274576 | 38.89° C | 42% | 976 hPa | - | 0 m/s | 0 W/m² | - |
| 1836274357 | 39.44° C | 41% | 976 hPa | - | 0 m/s | 0 W/m² | - |
| 1836274254 | 39.44° C | 42% | 976 hPa | - | 0 m/s | 0 W/m² | - |
| 1836274254 | 39.44° C | 42% | 976 hPa | - | 0 m/s | 0 W/m² | - |
| 1836274034 | 38.33° C | 42% | 977 hPa | - | 0 m/s | 0 W/m² | - |
| 1778054375 | 33.89° C | 61% | 975 hPa | - | 0 m/s | 0 W/m² | - |
| 1778054052 | 34.44° C | 59% | 975 hPa | - | 0 m/s | 0 W/m² | - |
| 1778053730 | 34.44° C | 58% | 976 hPa | - | 0 m/s | 0 W/m² | - |
| 1778053406 | 34.44° C | 58% | 975 hPa | - | 0 m/s | 0 W/m² | - |
| 1778053085 | 33.89° C | 59% | 975 hPa | - | 0 m/s | 0 W/m² | - |
| 1778053085 | 33.89° C | 59% | 975 hPa | - | 0 m/s | 0 W/m² | - |
| 1778052771 | 33.89° C | 59% | 975 hPa | - | 0 m/s | 0 W/m² | - |
| 1778052761 | 33.89° C | 59% | 975 hPa | - | 0 m/s | 0 W/m² | - |
| 1778052438 | 33.89° C | 59% | 976 hPa | - | 0 m/s | 0 W/m² | - |
| 1778052113 | 33.33° C | 59% | 976 hPa | - | 0 m/s | 0 W/m² | - |
| 1778051791 | 33.89° C | 59% | 976 hPa | - | 0 m/s | 0 W/m² | - |
| 1778051468 | 33.33° C | 59% | 976 hPa | - | 0 m/s | 0 W/m² | - |
| 1778051145 | 33.89° C | 59% | 976 hPa | - | 0 m/s | 0 W/m² | - |
| 1778050823 | 33.89° C | 61% | 976 hPa | - | 0 m/s | 0 W/m² | - |
| 1778050501 | 33.89° C | - | - | - | 0 m/s | - | - |
| 1778050501 | 33.89° C | 58% | 976 hPa | - | 0 m/s | 0 W/m² | - |
* Rain since midnight (hover to see other rain measurements)
** Current wind speed in m/s (hover to see current wind gust speed)